Time;durP1;ratioP1;P1;durP2;ratioP2;P2;SDS_P1;SDS_P2;PMS_P1;PMS_P2;Temp;Humidity;BMP_temperature;BMP_pressure;BME280_temperature;BME280_humidity;BME280_pressure;Samples;Min_cycle;Max_cycle;Signal;HPM_P1;HPM_P2
2022/04/14 00:00:24;;;;;;;16.17;6.13;;;;;;;;;;5091284;28;20527;-66
2022/04/14 00:02:51;;;;;;;13.00;6.30;;;;;;;;;;5054744;28;20117;-65
2022/04/14 00:05:17;;;;;;;11.50;6.70;;;;;;;;;;5090954;28;20052;-65
2022/04/14 00:07:44;;;;;;;12.52;6.63;;;;;;;;;;5093184;28;20044;-66
2022/04/14 00:10:10;;;;;;;10.63;6.72;;;;;;;;;;5055913;28;20480;-66
2022/04/14 00:12:36;;;;;;;12.40;6.70;;;;;;;;;;5072149;28;20114;-66
2022/04/14 00:15:04;;;;;;;11.75;6.32;;;;;;;;;;5078634;28;20130;-66
2022/04/14 00:17:32;;;;;;;11.40;6.38;;;;;;;;;;5056338;28;20461;-66
2022/04/14 00:19:58;;;;;;;15.85;7.28;;;;;;;;;;5071264;28;20045;-66
2022/04/14 00:22:24;;;;;;;17.55;7.72;;;;;;;;;;5058561;28;20479;-66
2022/04/14 00:24:50;;;;;;;13.63;7.40;;;;;;;;;;5095326;28;20098;-66
2022/04/14 00:27:20;;;;;;;11.20;7.13;;;;;;;;;;5079728;28;20056;-66
2022/04/14 00:29:49;;;;;;;15.98;8.13;;;;;;;;;;5071829;28;20131;-66
2022/04/14 00:32:15;;;;;;;14.55;8.38;;;;;;;;;;5068848;28;20057;-66
2022/04/14 00:34:41;;;;;;;16.38;8.18;;;;;;;;;;5105699;28;20058;-67
2022/04/14 00:37:09;;;;;;;13.50;8.23;;;;;;;;;;5099786;28;20048;-66
2022/04/14 00:39:35;;;;;;;18.15;9.68;;;;;;;;;;5077699;28;20496;-66
2022/04/14 00:42:02;;;;;;;13.23;8.70;;;;;;;;;;5069125;28;20044;-66
2022/04/14 00:44:27;;;;;;;16.35;8.80;;;;;;;;;;5092902;28;20044;-66
2022/04/14 00:46:54;;;;;;;13.20;8.88;;;;;;;;;;5098477;28;20158;-67
2022/04/14 00:49:20;;;;;;;14.00;9.38;;;;;;;;;;5097686;28;20052;-67
2022/04/14 00:51:46;;;;;;;15.27;9.52;;;;;;;;;;5083985;28;20132;-66
2022/04/14 00:54:12;;;;;;;19.67;10.23;;;;;;;;;;5077364;28;20119;-66
2022/04/14 00:56:38;;;;;;;16.63;9.43;;;;;;;;;;5077476;28;20434;-66
2022/04/14 00:59:04;;;;;;;14.05;9.35;;;;;;;;;;5097515;28;20057;-66
2022/04/14 01:01:30;;;;;;;15.68;9.38;;;;;;;;;;5068368;28;20048;-67
2022/04/14 01:03:56;;;;;;;17.73;10.60;;;;;;;;;;5063011;28;20036;-66
2022/04/14 01:06:23;;;;;;;18.73;10.73;;;;;;;;;;5087244;28;20100;-66
2022/04/14 01:11:35;;;;;;;18.70;11.05;;;;;;;;;;5091737;28;20041;-66
2022/04/14 01:14:01;;;;;;;20.60;11.63;;;;;;;;;;5090041;28;20043;-66
2022/04/14 01:16:27;;;;;;;14.38;11.00;;;;;;;;;;5098469;28;20051;-66
2022/04/14 01:18:53;;;;;;;14.68;10.13;;;;;;;;;;5083610;28;20044;-66
2022/04/14 01:21:21;;;;;;;16.45;11.15;;;;;;;;;;5076220;28;20044;-66
2022/04/14 01:23:47;;;;;;;21.27;12.02;;;;;;;;;;5068809;28;20044;-66
2022/04/14 01:26:13;;;;;;;19.40;11.57;;;;;;;;;;5106031;28;20130;-66
2022/04/14 01:28:39;;;;;;;21.08;10.90;;;;;;;;;;5084554;28;20036;-66
2022/04/14 01:31:05;;;;;;;17.42;10.25;;;;;;;;;;5087259;28;20040;-66
2022/04/14 01:33:31;;;;;;;18.65;11.82;;;;;;;;;;5061492;28;20543;-66
2022/04/14 01:35:57;;;;;;;23.92;11.63;;;;;;;;;;5077986;28;20055;-66
2022/04/14 01:38:23;;;;;;;19.92;12.70;;;;;;;;;;5062488;28;20053;-65
2022/04/14 01:40:49;;;;;;;23.58;12.65;;;;;;;;;;5089482;28;20055;-66
2022/04/14 01:43:15;;;;;;;23.92;14.25;;;;;;;;;;5093941;28;20104;-65
2022/04/14 01:45:46;;;;;;;23.95;14.82;;;;;;;;;;5090712;28;20093;-66
2022/04/14 01:48:13;;;;;;;18.23;12.25;;;;;;;;;;5091171;28;20044;-66
2022/04/14 01:50:39;;;;;;;22.48;13.75;;;;;;;;;;5087712;28;20089;-66
2022/04/14 01:53:05;;;;;;;25.02;14.50;;;;;;;;;;5094176;28;20040;-65
2022/04/14 01:55:31;;;;;;;19.88;13.80;;;;;;;;;;5072208;28;20041;-66
2022/04/14 01:57:57;;;;;;;21.27;13.43;;;;;;;;;;5082483;28;20075;-65
2022/04/14 02:00:23;;;;;;;27.90;16.75;;;;;;;;;;5082510;28;20088;-66
2022/04/14 02:02:49;;;;;;;21.75;15.35;;;;;;;;;;5089053;28;20044;-65
2022/04/14 02:05:15;;;;;;;24.27;15.32;;;;;;;;;;5093108;28;20086;-65
2022/04/14 02:07:41;;;;;;;22.65;14.93;;;;;;;;;;5094189;28;20076;-66
2022/04/14 02:10:07;;;;;;;25.77;16.17;;;;;;;;;;5085619;28;20063;-66
2022/04/14 02:12:34;;;;;;;29.00;18.25;;;;;;;;;;5063939;28;20060;-66
2022/04/14 02:15:00;;;;;;;25.65;15.85;;;;;;;;;;5056489;28;20040;-66
2022/04/14 02:17:26;;;;;;;24.77;15.57;;;;;;;;;;5092525;28;20048;-66
2022/04/14 02:19:52;;;;;;;29.00;17.50;;;;;;;;;;5088627;28;20037;-66
2022/04/14 02:22:18;;;;;;;33.92;20.33;;;;;;;;;;5073740;28;20044;-67
2022/04/14 02:24:44;;;;;;;29.63;18.08;;;;;;;;;;5048957;28;20039;-66
2022/04/14 02:27:10;;;;;;;32.08;18.90;;;;;;;;;;5084092;28;20041;-66
2022/04/14 02:29:37;;;;;;;31.60;19.52;;;;;;;;;;5049461;28;20040;-66
2022/04/14 02:32:03;;;;;;;31.08;18.38;;;;;;;;;;5055808;28;20044;-66
2022/04/14 02:34:29;;;;;;;34.60;20.15;;;;;;;;;;5080805;28;20044;-66
2022/04/14 02:36:55;;;;;;;32.22;18.45;;;;;;;;;;5073358;28;20055;-66
2022/04/14 02:39:21;;;;;;;35.55;21.52;;;;;;;;;;5097584;28;20262;-67
2022/04/14 02:41:47;;;;;;;32.50;19.27;;;;;;;;;;5102703;28;20051;-66
2022/04/14 02:44:13;;;;;;;37.10;20.35;;;;;;;;;;5084206;28;20106;-66
2022/04/14 02:46:39;;;;;;;36.80;21.95;;;;;;;;;;5060195;28;20052;-66
2022/04/14 02:49:05;;;;;;;37.30;21.25;;;;;;;;;;5100935;28;20044;-66
2022/04/14 02:51:31;;;;;;;40.28;22.42;;;;;;;;;;5062586;28;20044;-66
2022/04/14 02:53:57;;;;;;;35.58;21.45;;;;;;;;;;5073337;28;20075;-66
2022/04/14 02:56:23;;;;;;;37.97;22.25;;;;;;;;;;5091189;28;20105;-66
2022/04/14 02:58:49;;;;;;;42.65;23.42;;;;;;;;;;5101396;28;20044;-67
2022/04/14 03:01:15;;;;;;;37.55;23.42;;;;;;;;;;5079611;28;20537;-65
2022/04/14 03:03:41;;;;;;;43.95;24.58;;;;;;;;;;5078639;28;20100;-66
2022/04/14 03:06:07;;;;;;;41.28;23.23;;;;;;;;;;5092072;28;20055;-66
2022/04/14 03:08:33;;;;;;;39.47;23.38;;;;;;;;;;5090735;28;20617;-66
2022/04/14 03:10:59;;;;;;;40.03;24.00;;;;;;;;;;5057452;28;20124;-66
2022/04/14 03:13:25;;;;;;;39.38;25.50;;;;;;;;;;5071601;28;20053;-66
2022/04/14 03:15:51;;;;;;;46.53;26.63;;;;;;;;;;5063256;28;20134;-66
2022/04/14 03:18:18;;;;;;;45.13;25.77;;;;;;;;;;5054234;28;20041;-67
2022/04/14 03:20:44;;;;;;;46.58;25.65;;;;;;;;;;5066655;28;20037;-66
2022/04/14 03:23:11;;;;;;;50.40;27.17;;;;;;;;;;5052805;28;20084;-66
2022/04/14 03:25:37;;;;;;;43.97;26.50;;;;;;;;;;5059132;28;20054;-66
2022/04/14 03:28:03;;;;;;;46.05;26.58;;;;;;;;;;5053745;28;20040;-67
2022/04/14 03:30:29;;;;;;;48.67;27.42;;;;;;;;;;5055042;28;20041;-66
2022/04/14 03:32:55;;;;;;;50.85;27.27;;;;;;;;;;5061901;28;20072;-66
2022/04/14 03:35:21;;;;;;;48.03;26.42;;;;;;;;;;5069694;28;20044;-66
2022/04/14 03:37:47;;;;;;;49.50;26.48;;;;;;;;;;5082492;28;20083;-66
2022/04/14 03:40:13;;;;;;;47.30;26.88;;;;;;;;;;5068412;28;20068;-66
2022/04/14 03:42:39;;;;;;;49.35;28.92;;;;;;;;;;5051587;28;20056;-66
2022/04/14 03:45:06;;;;;;;53.40;29.10;;;;;;;;;;5037746;28;20052;-66
2022/04/14 03:47:32;;;;;;;49.17;29.02;;;;;;;;;;5070096;28;20052;-66
2022/04/14 03:49:58;;;;;;;54.97;31.15;;;;;;;;;;5050461;28;20047;-66
2022/04/14 03:52:24;;;;;;;48.17;28.88;;;;;;;;;;5052558;28;20089;-66
2022/04/14 03:54:50;;;;;;;55.75;29.42;;;;;;;;;;5053866;28;20057;-66
2022/04/14 03:57:16;;;;;;;49.53;27.90;;;;;;;;;;5072573;28;20048;-66
2022/04/14 03:59:42;;;;;;;54.50;29.83;;;;;;;;;;5068527;28;20040;-66
2022/04/14 04:02:08;;;;;;;46.85;28.27;;;;;;;;;;5065964;28;20056;-66
2022/04/14 04:04:34;;;;;;;59.92;30.45;;;;;;;;;;5046624;28;20056;-66
2022/04/14 04:07:00;;;;;;;52.75;29.90;;;;;;;;;;5057062;28;20049;-66
2022/04/14 04:09:27;;;;;;;46.80;29.55;;;;;;;;;;5083113;28;20084;-66
2022/04/14 04:11:58;;;;;;;52.40;30.75;;;;;;;;;;5096686;28;20475;-65
2022/04/14 04:14:24;;;;;;;52.22;27.67;;;;;;;;;;5077647;28;20047;-65
2022/04/14 04:16:50;;;;;;;55.20;31.92;;;;;;;;;;5078432;28;20178;-66
2022/04/14 04:19:16;;;;;;;48.90;29.13;;;;;;;;;;5084347;28;20051;-65
2022/04/14 04:21:42;;;;;;;44.80;27.48;;;;;;;;;;5066541;28;20080;-66
2022/04/14 04:24:08;;;;;;;52.20;28.90;;;;;;;;;;5058738;28;20070;-66
2022/04/14 04:26:34;;;;;;;45.60;29.23;;;;;;;;;;5046206;28;20048;-66
2022/04/14 04:29:00;;;;;;;52.50;28.05;;;;;;;;;;5099710;28;20039;-66
2022/04/14 04:31:26;;;;;;;48.88;27.63;;;;;;;;;;5098199;28;20759;-66
2022/04/14 04:33:53;;;;;;;47.63;26.50;;;;;;;;;;5046129;28;20052;-66
2022/04/14 04:36:19;;;;;;;48.42;26.92;;;;;;;;;;5058132;28;20048;-66
2022/04/14 04:38:45;;;;;;;37.45;22.95;;;;;;;;;;5078771;28;20487;-66
2022/04/14 04:41:11;;;;;;;39.08;24.08;;;;;;;;;;5066159;28;20051;-65
2022/04/14 04:43:37;;;;;;;39.53;24.40;;;;;;;;;;5041535;28;20114;-65
2022/04/14 04:46:03;;;;;;;39.13;23.27;;;;;;;;;;5041315;28;20516;-65
2022/04/14 04:48:29;;;;;;;37.75;23.80;;;;;;;;;;5073529;28;20100;-65
2022/04/14 04:50:55;;;;;;;36.55;22.85;;;;;;;;;;5081331;28;20052;-65
2022/04/14 04:53:21;;;;;;;38.50;24.73;;;;;;;;;;5072317;28;20051;-66
2022/04/14 04:55:47;;;;;;;42.78;25.02;;;;;;;;;;5062051;28;20528;-66
2022/04/14 04:58:14;;;;;;;37.30;22.50;;;;;;;;;;5077126;28;20523;-66
2022/04/14 05:00:41;;;;;;;52.53;26.85;;;;;;;;;;5069737;28;20048;-67
2022/04/14 05:03:10;;;;;;;42.72;25.42;;;;;;;;;;5075862;28;20032;-65
2022/04/14 05:05:37;;;;;;;43.85;24.98;;;;;;;;;;5089940;28;20075;-65
2022/04/14 05:08:04;;;;;;;40.40;24.75;;;;;;;;;;5063828;28;20036;-64
2022/04/14 05:10:30;;;;;;;46.10;28.50;;;;;;;;;;5095672;28;20580;-65
2022/04/14 05:12:56;;;;;;;51.30;28.42;;;;;;;;;;5081686;28;20527;-64
2022/04/14 05:15:22;;;;;;;46.75;28.73;;;;;;;;;;5069658;28;20500;-64
2022/04/14 05:17:48;;;;;;;58.38;31.67;;;;;;;;;;5073911;28;20062;-65
2022/04/14 05:20:14;;;;;;;54.38;32.15;;;;;;;;;;5092235;28;20048;-64
2022/04/14 05:22:40;;;;;;;61.15;33.70;;;;;;;;;;5112023;28;20051;-66
2022/04/14 05:25:06;;;;;;;53.55;30.98;;;;;;;;;;5094160;28;20536;-64
2022/04/14 05:27:32;;;;;;;58.10;34.28;;;;;;;;;;5110494;28;20057;-63
2022/04/14 05:29:58;;;;;;;63.75;33.22;;;;;;;;;;5096008;28;20048;-65
2022/04/14 05:32:24;;;;;;;63.95;35.53;;;;;;;;;;5071758;28;20048;-63
2022/04/14 05:34:50;;;;;;;64.13;33.47;;;;;;;;;;5083364;28;20045;-63
2022/04/14 05:37:16;;;;;;;62.72;33.88;;;;;;;;;;5086230;28;20053;-63
2022/04/14 05:39:42;;;;;;;63.58;34.55;;;;;;;;;;5094334;28;20401;-64
2022/04/14 05:42:08;;;;;;;70.95;36.25;;;;;;;;;;5095035;28;20048;-64
2022/04/14 05:44:34;;;;;;;65.63;35.95;;;;;;;;;;5038845;28;20051;-65
2022/04/14 05:47:00;;;;;;;64.63;35.47;;;;;;;;;;5089048;28;20526;-65
2022/04/14 05:49:26;;;;;;;65.85;35.20;;;;;;;;;;5088563;28;20044;-64
2022/04/14 05:51:52;;;;;;;58.33;33.13;;;;;;;;;;5081941;28;20044;-64
2022/04/14 05:54:18;;;;;;;64.78;36.25;;;;;;;;;;5082312;28;20597;-65
2022/04/14 05:56:44;;;;;;;66.40;35.13;;;;;;;;;;5081477;28;20396;-64
2022/04/14 05:59:16;;;;;;;53.17;31.85;;;;;;;;;;5084481;28;20488;-64
2022/04/14 06:01:43;;;;;;;59.20;32.17;;;;;;;;;;5066892;28;20089;-64
2022/04/14 06:04:09;;;;;;;63.25;34.13;;;;;;;;;;5062163;28;20051;-64
2022/04/14 06:06:35;;;;;;;60.72;35.85;;;;;;;;;;5083580;28;20051;-64
2022/04/14 06:09:01;;;;;;;59.40;34.40;;;;;;;;;;5065871;28;20135;-65
2022/04/14 06:11:28;;;;;;;54.30;34.90;;;;;;;;;;5081593;28;20575;-64
2022/04/14 06:13:54;;;;;;;53.13;31.83;;;;;;;;;;5064647;28;20047;-64
2022/04/14 06:16:20;;;;;;;57.33;30.27;;;;;;;;;;5088691;28;20556;-64
2022/04/14 06:18:46;;;;;;;53.05;30.48;;;;;;;;;;5071464;28;20047;-65
2022/04/14 06:21:12;;;;;;;50.40;30.67;;;;;;;;;;5087220;28;20044;-66
2022/04/14 06:23:38;;;;;;;50.75;30.52;;;;;;;;;;5076239;28;20075;-66
2022/04/14 06:26:04;;;;;;;48.75;29.90;;;;;;;;;;5090841;28;20047;-66
2022/04/14 06:28:34;;;;;;;48.15;28.92;;;;;;;;;;5049349;28;20548;-66
2022/04/14 06:31:00;;;;;;;51.53;28.98;;;;;;;;;;5049349;28;20464;-66
2022/04/14 06:33:30;;;;;;;49.83;28.80;;;;;;;;;;5079347;28;20146;-67
2022/04/14 06:35:56;;;;;;;48.75;28.40;;;;;;;;;;5066850;28;20385;-68
2022/04/14 06:38:24;;;;;;;43.35;27.25;;;;;;;;;;5099578;22;20052;-66
2022/04/14 06:40:50;;;;;;;44.83;26.42;;;;;;;;;;5075587;22;20421;-66
2022/04/14 06:43:16;;;;;;;46.38;29.35;;;;;;;;;;5031038;28;20049;-67
2022/04/14 06:45:42;;;;;;;45.78;28.75;;;;;;;;;;5027549;28;20440;-66
2022/04/14 06:48:09;;;;;;;42.80;26.90;;;;;;;;;;5052696;28;20472;-67
2022/04/14 06:50:35;;;;;;;44.75;26.35;;;;;;;;;;5049354;28;20041;-67
2022/04/14 06:53:01;;;;;;;46.40;25.25;;;;;;;;;;5047704;28;20049;-67
2022/04/14 06:55:27;;;;;;;41.92;23.50;;;;;;;;;;5029820;28;20040;-67
2022/04/14 06:57:54;;;;;;;38.35;23.52;;;;;;;;;;5028949;28;20555;-68
2022/04/14 07:00:23;;;;;;;38.40;23.55;;;;;;;;;;5047511;28;20045;-67
2022/04/14 07:02:51;;;;;;;48.22;25.98;;;;;;;;;;5031037;28;20049;-67
2022/04/14 07:05:17;;;;;;;34.85;23.85;;;;;;;;;;5033014;28;20110;-66
2022/04/14 07:07:43;;;;;;;39.42;23.67;;;;;;;;;;5035473;28;20409;-67
2022/04/14 07:10:10;;;;;;;37.35;22.38;;;;;;;;;;5033087;28;20045;-66
2022/04/14 07:12:37;;;;;;;34.95;22.42;;;;;;;;;;5050633;28;20053;-67
2022/04/14 07:15:03;;;;;;;45.13;24.45;;;;;;;;;;5018230;28;20058;-67
2022/04/14 07:17:29;;;;;;;34.75;22.38;;;;;;;;;;5033455;28;20111;-66
2022/04/14 07:19:57;;;;;;;36.15;22.13;;;;;;;;;;5032577;28;20509;-67
2022/04/14 07:22:23;;;;;;;31.17;21.55;;;;;;;;;;5035413;28;20505;-67
2022/04/14 07:24:49;;;;;;;34.28;20.05;;;;;;;;;;5051529;28;20045;-67
2022/04/14 07:27:20;;;;;;;33.90;21.30;;;;;;;;;;5033881;28;20116;-67
2022/04/14 07:29:46;;;;;;;30.50;18.98;;;;;;;;;;5016718;28;20044;-67
2022/04/14 07:32:13;;;;;;;32.88;18.83;;;;;;;;;;5034315;28;20501;-67
2022/04/14 07:34:39;;;;;;;29.92;17.70;;;;;;;;;;5034369;28;20064;-67
2022/04/14 07:37:05;;;;;;;30.92;17.38;;;;;;;;;;5034229;28;20049;-67
2022/04/14 07:39:31;;;;;;;26.98;16.00;;;;;;;;;;5052128;28;20040;-67
2022/04/14 07:41:57;;;;;;;25.70;16.10;;;;;;;;;;5018391;28;20051;-68
2022/04/14 07:44:23;;;;;;;21.70;14.85;;;;;;;;;;5033765;28;20481;-67
2022/04/14 07:46:50;;;;;;;23.30;14.57;;;;;;;;;;5051214;28;20049;-68
2022/04/14 07:49:16;;;;;;;20.88;12.88;;;;;;;;;;5033448;28;20037;-68
2022/04/14 07:51:42;;;;;;;27.05;15.13;;;;;;;;;;5052700;28;20049;-68
2022/04/14 07:54:10;;;;;;;28.05;15.98;;;;;;;;;;5051981;28;20037;-67
2022/04/14 07:56:36;;;;;;;19.02;12.20;;;;;;;;;;5013949;28;20564;-67
2022/04/14 07:59:02;;;;;;;22.88;12.73;;;;;;;;;;5051529;28;20123;-67
2022/04/14 08:01:31;;;;;;;20.98;12.98;;;;;;;;;;5051672;28;20083;-68
2022/04/14 08:03:57;;;;;;;18.40;12.15;;;;;;;;;;5032663;28;20691;-68
2022/04/14 08:06:25;;;;;;;19.35;12.27;;;;;;;;;;5049588;28;20052;-61
2022/04/14 08:08:51;;;;;;;17.30;11.73;;;;;;;;;;5034472;28;20066;-58
2022/04/14 08:11:18;;;;;;;19.15;12.55;;;;;;;;;;5017057;28;20056;-58
2022/04/14 08:13:44;;;;;;;18.45;11.85;;;;;;;;;;5045187;28;20055;-58
2022/04/14 08:16:10;;;;;;;15.88;12.10;;;;;;;;;;5029225;28;20076;-60
2022/04/14 08:18:37;;;;;;;22.90;12.48;;;;;;;;;;5049687;28;20151;-58
2022/04/14 08:21:04;;;;;;;19.17;12.27;;;;;;;;;;5034946;28;20397;-57
2022/04/14 08:23:31;;;;;;;19.40;11.15;;;;;;;;;;5046202;28;20485;-68
2022/04/14 08:25:57;;;;;;;20.77;11.48;;;;;;;;;;5044848;28;20049;-68
2022/04/14 08:28:23;;;;;;;16.38;10.60;;;;;;;;;;5052485;28;20135;-64
2022/04/14 08:30:54;;;;;;;14.40;10.50;;;16.70;99.90;;;;;;5025649;28;20048;-59
2022/04/14 08:33:23;;;;;;;14.80;9.95;;;16.70;99.90;;;;;;5049113;28;20044;-65
2022/04/14 08:35:49;;;;;;;16.42;10.80;;;;;;;;;;5051745;28;20045;-64
2022/04/14 08:38:16;;;;;;;14.82;9.00;;;;;;;;;;5049218;28;20542;-65
2022/04/14 08:40:46;;;;;;;15.10;9.25;;;17.10;99.90;;;;;;5041012;28;20596;-63
2022/04/14 08:43:15;;;;;;;16.55;8.68;;;17.30;99.90;;;;;;5002365;28;20118;-68
2022/04/14 08:45:48;;;;;;;17.00;9.63;;;17.30;99.90;;;;;;5034637;28;20134;-62
2022/04/14 08:48:20;;;;;;;15.10;9.57;;;17.50;99.90;;;;;;5040712;28;20041;-60
2022/04/14 08:50:50;;;;;;;14.43;9.43;;;17.70;99.90;;;;;;5048643;28;20045;-64
2022/04/14 08:53:18;;;;;;;15.27;10.17;;;17.40;99.90;;;;;;5034011;28;20045;-64
2022/04/14 08:55:44;;;;;;;14.50;8.60;;;;;;;;;;5023022;28;20080;-61
2022/04/14 08:58:14;;;;;;;13.43;9.00;;;17.60;99.90;;;;;;5038184;28;20052;-61
2022/04/14 09:00:41;;;;;;;15.10;10.25;;;;;;;;;;5031889;28;20468;-61
2022/04/14 09:03:07;;;;;;;14.90;10.60;;;;;;;;;;5037390;28;20040;-62
2022/04/14 09:05:33;;;;;;;15.80;10.45;;;;;;;;;;5052798;28;20048;-60
2022/04/14 09:08:00;;;;;;;17.73;10.95;;;;;;;;;;5042710;28;20052;-57
2022/04/14 09:10:27;;;;;;;15.07;11.25;;;;;;;;;;5049886;28;20690;-65
2022/04/14 09:12:52;;;;;;;14.70;11.40;;;18.00;99.90;;;;;;5037062;28;20094;-67
2022/04/14 09:15:18;;;;;;;18.25;11.05;;;18.20;99.90;;;;;;5052706;28;20049;-63
2022/04/14 09:17:44;;;;;;;17.10;11.25;;;;;;;;;;5055188;28;20102;-64
2022/04/14 09:20:31;;;;;;;16.60;11.27;;;18.20;99.90;;;;;;5046457;28;20088;-66
2022/04/14 09:23:29;;;;;;;16.10;11.75;;;18.30;99.90;;;;;;5054971;28;20135;-61
2022/04/14 09:26:04;;;;;;;22.02;12.38;;;18.20;99.90;;;;;;5010967;28;20049;-62
2022/04/14 09:28:30;;;;;;;15.30;10.85;;;18.10;99.90;;;;;;5038839;28;20045;-70
2022/04/14 09:31:07;;;;;;;13.75;10.68;;;18.20;99.90;;;;;;5040146;28;20044;-69
2022/04/14 09:33:35;;;;;;;19.05;11.27;;;18.40;99.90;;;;;;5037049;28;20043;-68
2022/04/14 09:36:07;;;;;;;14.25;10.00;;;18.50;99.90;;;;;;5044599;28;20079;-67
2022/04/14 09:38:59;;;;;;;16.15;9.80;;;18.50;99.90;;;;;;5075199;28;20044;-70
2022/04/14 09:41:37;;;;;;;16.25;9.25;;;;;;;;;;5040773;28;20049;-60
2022/04/14 09:44:06;;;;;;;13.18;8.90;;;18.50;99.90;;;;;;5054995;28;20049;-58
2022/04/14 09:46:32;;;;;;;15.38;9.43;;;;;;;;;;5037943;28;20098;-59
2022/04/14 09:49:00;;;;;;;13.82;8.07;;;;;;;;;;5017091;28;20107;-60
2022/04/14 09:51:33;;;;;;;12.85;7.28;;;;;;;;;;5049905;28;20045;-60
2022/04/14 09:54:13;;;;;;;11.65;7.03;;;18.20;99.90;;;;;;5052501;28;20078;-61
2022/04/14 09:56:42;;;;;;;12.35;7.07;;;;;;;;;;5074020;28;20059;-67
2022/04/14 09:59:10;;;;;;;13.00;7.43;;;17.80;99.90;;;;;;5045573;28;20044;-69
2022/04/14 10:01:36;;;;;;;12.57;7.25;;;;;;;;;;5036143;28;20490;-67
2022/04/14 10:04:04;;;;;;;12.68;6.82;;;17.80;99.90;;;;;;5045040;28;20048;-64
2022/04/14 10:06:30;;;;;;;12.52;7.32;;;;;;;;;;5053503;28;20426;-63
2022/04/14 10:08:57;;;;;;;13.75;8.00;;;17.80;99.90;;;;;;5052888;28;20494;-65
2022/04/14 10:11:27;;;;;;;10.98;6.35;;;18.70;99.90;;;;;;5036859;28;20048;-64
2022/04/14 10:13:53;;;;;;;13.38;8.75;;;;;;;;;;5035998;28;20060;-64
2022/04/14 10:16:25;;;;;;;13.93;8.38;;;18.20;99.90;;;;;;5036183;28;20132;-68
2022/04/14 10:18:53;;;;;;;15.38;9.25;;;18.50;99.90;;;;;;5036367;28;20061;-64
2022/04/14 10:21:21;;;;;;;12.18;8.98;;;18.40;99.90;;;;;;5053895;28;20120;-63
2022/04/14 10:23:48;;;;;;;13.90;7.72;;;18.50;99.90;;;;;;5054150;28;20044;-70
2022/04/14 10:26:16;;;;;;;15.63;8.35;;;18.50;99.90;;;;;;5054674;28;20095;-66
2022/04/14 10:28:44;;;;;;;18.70;8.55;;;;;;;;;;5048458;28;20049;-65
2022/04/14 10:31:11;;;;;;;16.48;8.48;;;;;;;;;;5044278;28;20049;-66
2022/04/14 10:33:37;;;;;;;13.30;7.25;;;;;;;;;;5032929;28;20049;-63
2022/04/14 10:36:05;;;;;;;10.30;6.05;;;18.80;99.90;;;;;;5064897;28;20060;-62
2022/04/14 10:38:35;;;;;;;9.27;6.07;;;18.40;99.90;;;;;;5055909;28;20051;-61
2022/04/14 10:41:21;;;;;;;10.23;6.10;;;18.60;99.90;;;;;;5114798;22;20044;-60
2022/04/14 10:43:47;;;;;;;9.95;5.63;;;;;;;;;;5029532;28;20061;-61
2022/04/14 10:46:17;;;;;;;11.52;5.60;;;;;;;;;;5072957;28;20568;-61
2022/04/14 10:48:46;;;;;;;13.27;5.57;;;;;;;;;;5073376;28;20552;-61
2022/04/14 10:51:23;;;;;;;9.32;4.93;;;18.60;99.90;;;;;;5069669;28;20033;-62
2022/04/14 10:54:01;;;;;;;11.73;5.15;;;18.50;99.90;;;;;;5053503;28;20049;-62
2022/04/14 10:56:42;;;;;;;11.35;4.68;;;;;;;;;;5053424;28;20037;-63
2022/04/14 10:59:14;;;;;;;8.77;4.45;;;;;;;;;;5052962;28;20469;-63
2022/04/14 11:08:04;;;;;;;8.55;4.40;;;;;;;;;;4968537;22;20125;-72
2022/04/14 11:10:30;;;;;;;9.55;4.35;;;;;;;;;;5073254;28;20056;-69
2022/04/14 11:12:56;;;;;;;9.10;4.40;;;;;;;;;;5078626;28;20480;-68
2022/04/14 11:15:32;;;;;;;8.45;4.50;;;;;;;;;;5039725;28;20147;-65
2022/04/14 11:18:03;;;;;;;5.32;3.30;;;;;;;;;;5047348;28;20131;-62
2022/04/14 11:20:37;;;;;;;7.50;3.67;;;;;;;;;;5066178;28;20124;-63
2022/04/14 11:23:03;;;;;;;9.70;4.18;;;;;;;;;;5057611;28;20097;-67
2022/04/14 11:25:41;;;;;;;10.63;4.97;;;;;;;;;;5059960;28;20037;-69
2022/04/14 11:28:17;;;;;;;10.18;5.28;;;;;;;;;;5038916;28;20143;-68
2022/04/14 11:30:44;;;;;;;9.25;4.80;;;;;;;;;;5040290;28;20041;-67
2022/04/14 11:33:33;;;;;;;10.55;4.80;;;;;;;;;;5031494;28;20494;-71
2022/04/14 11:36:10;;;;;;;9.30;4.55;;;;;;;;;;5038362;28;20094;-67
2022/04/14 11:38:52;;;;;;;11.60;4.80;;;;;;;;;;5062286;28;20051;-65
2022/04/14 11:41:33;;;;;;;12.27;5.22;;;;;;;;;;5052819;28;20132;-64
2022/04/14 11:44:00;;;;;;;10.13;4.82;;;;;;;;;;5047000;28;20127;-69
2022/04/14 11:46:26;;;;;;;10.02;4.65;;;;;;;;;;5046855;28;20484;-67
2022/04/14 11:48:52;;;;;;;8.80;4.72;;;;;;;;;;5070309;28;20048;-66
2022/04/14 11:51:19;;;;;;;12.45;5.07;;;;;;;;;;5052796;28;20069;-66
2022/04/14 11:53:45;;;;;;;8.88;5.22;;;;;;;;;;5052493;28;20045;-65
2022/04/14 11:56:17;;;;;;;9.43;5.18;;;;;;;;;;5052131;28;20040;-66
2022/04/14 11:58:44;;;;;;;8.75;4.85;;;;;;;;;;5061314;28;20056;-65
2022/04/14 12:01:11;;;;;;;11.27;4.80;;;;;;;;;;5059081;28;20516;-66
2022/04/14 12:03:37;;;;;;;8.30;4.30;;;;;;;;;;5063593;28;20113;-65
2022/04/14 12:06:08;;;;;;;8.05;4.82;;;;;;;;;;5062726;28;20098;-70
2022/04/14 12:08:34;;;;;;;;;;;;;;;;;;5059885;28;20198;-68
2022/04/14 12:11:03;;;;;;;7.38;4.38;;;;;;;;;;5034614;28;19970;-67
2022/04/14 12:13:33;;;;;;;9.10;4.37;;;;;;;;;;5025770;28;20116;-67
2022/04/14 12:16:03;;;;;;;8.68;3.65;;;;;;;;;;5070752;28;20060;-67
2022/04/14 12:18:29;;;;;;;7.68;4.57;;;;;;;;;;5042268;28;20378;-67
2022/04/14 12:20:55;;;;;;;8.10;4.35;;;;;;;;;;5057283;28;20048;-68
2022/04/14 12:23:21;;;;;;;9.15;4.43;;;;;;;;;;5042492;28;20045;-67
2022/04/14 12:25:48;;;;;;;10.63;4.55;;;;;;;;;;5036696;28;20045;-68
2022/04/14 12:28:14;;;;;;;8.00;3.30;;;;;;;;;;5060369;28;20693;-68
2022/04/14 12:30:43;;;;;;;6.40;2.72;;;;;;;;;;5055294;28;20040;-68
2022/04/14 12:33:09;;;;;;;10.15;3.70;;;;;;;;;;5063526;28;20052;-67
2022/04/14 12:35:39;;;;;;;7.00;3.20;;;;;;;;;;5039897;28;20055;-67
2022/04/14 12:38:25;;;;;;;13.35;4.32;;;;;;;;;;5024154;28;20058;-68
2022/04/14 12:40:57;;;;;;;7.15;2.95;;;;;;;;;;5066405;28;20122;-68
2022/04/14 12:43:24;;;;;;;5.90;2.70;;;;;;;;;;5056984;28;20059;-65
2022/04/14 12:45:50;;;;;;;6.20;3.17;;;;;;;;;;5071760;28;20049;-62
2022/04/14 12:48:34;;;;;;;6.45;2.20;;;;;;;;;;5044356;28;20056;-64
2022/04/14 12:51:00;;;;;;;6.13;2.53;;;;;;;;;;5056554;28;20056;-63
2022/04/14 12:53:27;;;;;;;7.25;2.70;;;;;;;;;;5052009;28;20048;-61
2022/04/14 12:56:11;;;;;;;5.45;2.10;;;19.70;99.90;;;;;;5064814;28;20055;-62
2022/04/14 12:58:37;;;;;;;9.13;3.20;;;;;;;;;;5052999;28;20045;-65
2022/04/14 13:01:12;;;;;;;8.40;3.80;;;;;;;;;;5056004;28;20080;-65
2022/04/14 13:03:50;;;;;;;4.68;1.80;;;19.20;99.90;;;;;;5063058;28;20078;-63
2022/04/14 13:06:18;;;;;;;7.15;2.65;;;;;;;;;;5053915;28;20072;-65
2022/04/14 13:08:45;;;;;;;5.35;3.05;;;;;;;;;;5037701;28;20057;-63
2022/04/14 13:11:30;;;;;;;10.50;4.03;;;;;;;;;;5051733;28;20040;-65
2022/04/14 13:13:57;;;;;;;7.57;2.65;;;;;;;;;;5053655;28;20049;-64
2022/04/14 13:16:23;;;;;;;6.50;2.40;;;;;;;;;;5051284;28;20101;-69
2022/04/14 13:18:49;;;;;;;6.05;2.95;;;;;;;;;;5055400;28;20076;-65
2022/04/14 13:21:17;;;;;;;7.80;3.55;;;;;;;;;;5071999;28;20060;-66
2022/04/14 13:23:43;;;;;;;6.32;2.10;;;;;;;;;;5058730;28;20059;-66
2022/04/14 13:26:09;;;;;;;7.38;2.47;;;;;;;;;;5056071;28;20049;-65
2022/04/14 13:28:37;;;;;;;5.55;2.30;;;;;;;;;;5069387;28;20496;-65
2022/04/14 13:31:03;;;;;;;8.52;2.78;;;;;;;;;;5042162;28;20080;-64
2022/04/14 13:33:30;;;;;;;5.85;3.75;;;;;;;;;;5060028;28;20109;-63
2022/04/14 13:35:56;;;;;;;13.13;3.92;;;;;;;;;;5066866;28;20048;-64
2022/04/14 13:38:22;;;;;;;10.60;4.72;;;;;;;;;;5066059;28;20431;-63
2022/04/14 13:40:48;;;;;;;9.10;4.18;;;;;;;;;;5066741;28;20056;-63
2022/04/14 13:43:14;;;;;;;9.23;4.72;;;;;;;;;;5065216;28;20425;-63
2022/04/14 13:45:40;;;;;;;7.65;4.10;;;;;;;;;;5061232;28;20404;-62
2022/04/14 13:48:09;;;;;;;9.80;3.50;;;;;;;;;;5057653;28;20049;-63
2022/04/14 13:50:37;;;;;;;8.45;3.63;;;;;;;;;;5055046;28;20053;-62
2022/04/14 13:53:03;;;;;;;9.30;4.50;;;;;;;;;;5051804;28;20048;-63
2022/04/14 13:55:34;;;;;;;8.65;3.97;;;;;;;;;;5074153;28;20071;-63
2022/04/14 13:58:00;;;;;;;6.72;3.58;;;;;;;;;;5061679;28;20446;-62
2022/04/14 14:00:26;;;;;;;8.90;3.70;;;;;;;;;;5074558;28;20110;-62
2022/04/14 14:02:52;;;;;;;7.22;3.92;;;;;;;;;;5086107;28;20048;-62
2022/04/14 14:05:19;;;;;;;7.60;3.17;;;;;;;;;;5056681;28;20531;-62
2022/04/14 14:07:45;;;;;;;9.35;3.42;;;;;;;;;;5056990;28;20056;-63
2022/04/14 14:10:12;;;;;;;10.15;4.07;;;;;;;;;;5073902;28;20412;-62
2022/04/14 14:12:41;;;;;;;9.32;3.63;;;;;;;;;;5039919;28;20476;-63
2022/04/14 14:15:07;;;;;;;9.82;3.50;;;;;;;;;;5074221;28;20044;-62
2022/04/14 14:17:38;;;;;;;9.60;3.35;;;;;;;;;;5057407;28;20048;-62
2022/04/14 14:20:05;;;;;;;8.45;3.72;;;;;;;;;;5071843;28;20065;-62
2022/04/14 14:22:31;;;;;;;7.43;3.47;;;;;;;;;;5076240;28;20044;-62